Time;durP1;ratioP1;P1;durP2;ratioP2;P2;SDS_P1;SDS_P2;PMS_P1;PMS_P2;Temp;Humidity;BMP_temperature;BMP_pressure;BME280_temperature;BME280_humidity;BME280_pressure;Samples;Min_cycle;Max_cycle;Signal;HPM_P1;HPM_P2
2021/10/21 00:00:46;;;;;;;9.68;7.07;;;;;;;17.23;46.00;98883.44;5088574;28;20694;-72
2021/10/21 00:03:13;;;;;;;10.75;7.90;;;;;;;17.17;46.12;98875.16;5089445;28;20068;-72
2021/10/21 00:05:40;;;;;;;10.18;6.82;;;;;;;17.18;46.14;98868.00;5088171;28;20425;-71
2021/10/21 00:08:07;;;;;;;10.45;7.13;;;;;;;17.18;45.93;98862.69;5087676;28;20040;-73
2021/10/21 00:10:34;;;;;;;10.70;7.75;;;;;;;17.15;46.29;98861.19;5088183;28;20055;-72
2021/10/21 00:13:01;;;;;;;10.68;7.32;;;;;;;17.14;46.27;98856.03;5084939;28;20046;-72
2021/10/21 00:15:30;;;;;;;15.57;7.43;;;;;;;17.10;46.30;98854.78;5086599;28;20096;-72
2021/10/21 00:17:57;;;;;;;11.85;8.18;;;;;;;17.06;46.46;98857.00;5087763;28;20063;-72
2021/10/21 00:20:24;;;;;;;13.32;7.45;;;;;;;17.04;46.40;98853.69;5087417;28;20048;-73
2021/10/21 00:22:51;;;;;;;9.95;6.95;;;;;;;17.02;46.45;98844.22;5087274;28;20047;-72
2021/10/21 00:25:18;;;;;;;14.35;7.88;;;;;;;17.00;46.56;98837.22;5087135;28;20059;-72
2021/10/21 00:27:45;;;;;;;11.48;7.50;;;;;;;17.00;46.57;98849.75;5086774;28;20566;-72
2021/10/21 00:30:12;;;;;;;8.75;7.10;;;;;;;17.02;46.42;98841.56;5086756;28;20060;-72
2021/10/21 00:32:42;;;;;;;12.65;8.38;;;;;;;17.00;46.70;98839.91;5087453;28;20048;-73
2021/10/21 00:35:10;;;;;;;12.75;7.20;;;;;;;16.98;46.57;98833.94;5086825;28;20071;-71
2021/10/21 00:37:37;;;;;;;12.05;7.70;;;;;;;16.99;46.62;98832.91;5086813;28;20059;-73
2021/10/21 00:40:05;;;;;;;12.30;7.00;;;;;;;17.00;46.45;98831.91;5086709;28;20048;-71
2021/10/21 00:42:32;;;;;;;9.27;7.13;;;;;;;16.98;46.60;98828.59;5084264;28;20048;-72
2021/10/21 00:44:59;;;;;;;10.25;7.05;;;;;;;16.94;46.64;98818.47;5087033;28;20047;-72
2021/10/21 00:47:26;;;;;;;10.13;7.45;;;;;;;16.90;46.70;98811.88;5087732;28;20048;-73
2021/10/21 00:49:55;;;;;;;13.32;7.32;;;;;;;16.90;46.87;98814.53;5086544;28;20044;-71
2021/10/21 00:52:22;;;;;;;15.55;7.68;;;;;;;16.88;46.86;98811.22;5086718;28;20131;-72
2021/10/21 00:54:51;;;;;;;13.55;7.78;;;;;;;16.89;46.88;98818.19;5088161;28;20090;-72
2021/10/21 00:57:18;;;;;;;9.38;6.75;;;;;;;16.87;46.75;98814.91;5086751;28;20071;-74
2021/10/21 00:59:45;;;;;;;15.50;8.93;;;;;;;16.85;46.98;98812.41;5086940;28;20044;-73
2021/10/21 01:02:12;;;;;;;11.13;6.72;;;;;;;16.86;46.89;98797.28;5086854;28;20052;-72
2021/10/21 01:04:40;;;;;;;16.05;7.22;;;;;;;16.85;46.87;98793.75;5069163;28;20055;-73
2021/10/21 01:07:09;;;;;;;10.52;6.85;;;;;;;16.87;46.86;98797.09;5087165;28;20079;-72
2021/10/21 01:09:38;;;;;;;16.23;7.97;;;;;;;16.88;46.87;98793.38;5079287;28;20042;-72
2021/10/21 01:12:05;;;;;;;12.88;7.65;;;;;;;16.86;46.90;98797.28;5087151;28;20054;-73
2021/10/21 01:14:32;;;;;;;10.80;7.57;;;;;;;16.86;46.92;98784.75;5087283;28;20044;-73
2021/10/21 01:16:59;;;;;;;11.18;7.68;;;;;;;16.87;46.83;98785.56;5085974;28;20044;-71
2021/10/21 01:19:26;;;;;;;9.43;6.95;;;;;;;16.84;46.98;98786.78;5085472;28;20048;-73
2021/10/21 01:21:56;;;;;;;10.77;6.88;;;;;;;16.84;47.13;98786.78;5086603;28;20048;-73
2021/10/21 01:24:24;;;;;;;12.02;8.00;;;;;;;16.82;47.17;98786.13;5086516;28;20054;-73
2021/10/21 01:26:53;;;;;;;9.63;7.15;;;;;;;16.81;47.25;98776.44;5085882;28;20051;-72
2021/10/21 01:29:22;;;;;;;9.80;7.07;;;;;;;16.79;47.14;98773.97;5086162;28;20048;-72
2021/10/21 01:31:49;;;;;;;10.48;7.80;;;;;;;16.79;47.20;98770.50;5086211;28;20043;-72
2021/10/21 01:34:16;;;;;;;10.82;6.82;;;;;;;16.76;47.14;98763.69;5086476;28;20403;-72
2021/10/21 01:36:48;;;;;;;10.63;7.32;;;;;;;16.73;47.37;98755.25;5087239;28;20047;-73
2021/10/21 01:39:16;;;;;;;11.57;7.50;;;;;;;16.78;47.23;98750.16;5086754;28;20139;-72
2021/10/21 01:41:43;;;;;;;8.73;6.35;;;;;;;16.79;47.27;98749.16;5085161;28;20044;-74
2021/10/21 01:44:10;;;;;;;9.25;6.57;;;;;;;16.80;47.16;98753.50;5088060;28;20052;-72
2021/10/21 01:46:39;;;;;;;11.90;7.05;;;;;;;16.79;47.18;98747.31;5086145;28;20040;-71
2021/10/21 01:49:06;;;;;;;11.57;8.43;;;;;;;16.78;47.13;98747.50;5086498;28;20399;-71
2021/10/21 01:51:34;;;;;;;12.18;8.55;;;;;;;16.76;47.49;98741.53;5087237;28;20046;-71
2021/10/21 01:54:01;;;;;;;11.77;6.93;;;;;;;16.69;47.37;98730.81;5086626;28;20052;-71
2021/10/21 01:56:29;;;;;;;10.23;7.90;;;;;;;16.66;47.50;98735.69;5086556;28;20044;-71
2021/10/21 01:58:56;;;;;;;10.07;6.93;;;;;;;16.60;47.68;98726.56;5093814;28;20048;-71
2021/10/21 02:01:23;;;;;;;12.13;6.95;;;;;;;16.56;47.83;98727.97;5085633;28;20052;-72
2021/10/21 02:03:50;;;;;;;11.65;6.95;;;;;;;16.50;47.92;98718.88;5086259;28;20044;-71
2021/10/21 02:06:17;;;;;;;9.63;6.43;;;;;;;16.44;48.09;98717.81;5086448;28;20048;-72
2021/10/21 02:08:44;;;;;;;10.55;7.65;;;;;;;16.40;48.17;98708.53;5086222;28;20048;-72
2021/10/21 02:11:11;;;;;;;10.27;6.97;;;;;;;16.37;48.21;98708.91;5085755;28;20063;-72
2021/10/21 02:13:39;;;;;;;13.38;6.97;;;;;;;16.38;48.38;98696.41;5087306;28;20055;-71
2021/10/21 02:16:06;;;;;;;11.45;7.28;;;;;;;16.34;48.31;98695.94;5086143;28;20442;-72
2021/10/21 02:18:33;;;;;;;12.15;7.10;;;;;;;16.33;48.37;98688.13;5086116;28;20634;-72
2021/10/21 02:21:00;;;;;;;10.98;6.53;;;;;;;16.32;48.34;98678.50;5086622;28;20411;-71
2021/10/21 02:23:27;;;;;;;9.02;6.75;;;;;;;16.33;48.52;98683.66;5085030;28;20083;-72
2021/10/21 02:25:54;;;;;;;9.15;6.60;;;;;;;16.32;48.34;98682.00;5086102;28;20052;-71
2021/10/21 02:28:20;;;;;;;9.25;6.82;;;;;;;16.28;48.51;98679.88;5085816;28;20044;-71
2021/10/21 02:30:49;;;;;;;9.43;6.70;;;;;;;16.23;48.66;98675.13;5084526;28;20060;-72
2021/10/21 02:33:16;;;;;;;8.27;6.47;;;;;;;16.21;48.55;98675.31;5085618;28;20059;-71
2021/10/21 02:35:43;;;;;;;11.32;6.80;;;;;;;16.19;48.63;98671.19;5086351;28;20105;-71
2021/10/21 02:38:10;;;;;;;10.00;6.40;;;;;;;16.16;48.53;98672.38;5085124;28;20201;-73
2021/10/21 02:40:38;;;;;;;14.00;8.02;;;;;;;16.19;48.70;98672.00;5086037;28;20718;-72
2021/10/21 02:43:05;;;;;;;12.52;7.55;;;;;;;16.22;48.57;98668.13;5083776;28;20124;-72
2021/10/21 02:45:32;;;;;;;11.15;7.68;;;;;;;16.22;48.34;98660.97;5085318;28;20067;-73
2021/10/21 02:48:00;;;;;;;12.80;7.88;;;;;;;16.24;48.52;98650.97;5086336;28;20048;-71
2021/10/21 02:50:27;;;;;;;12.05;7.57;;;;;;;16.22;48.62;98653.00;5084724;28;20056;-73
2021/10/21 02:52:54;;;;;;;9.60;6.82;;;;;;;16.23;48.60;98645.81;5085853;28;20082;-70
2021/10/21 02:55:22;;;;;;;10.40;7.00;;;;;;;16.24;48.51;98650.97;5086793;28;20472;-70
2021/10/21 02:57:49;;;;;;;11.68;7.60;;;;;;;16.26;48.51;98650.78;5085933;28;20048;-71
2021/10/21 03:00:16;;;;;;;12.25;9.07;;;;;;;16.22;48.57;98653.00;5084980;28;20674;-70
2021/10/21 03:02:42;;;;;;;11.80;6.90;;;;;;;16.20;48.57;98643.53;5090758;28;20126;-72
2021/10/21 03:05:11;;;;;;;14.48;8.93;;;;;;;16.19;48.67;98637.38;5092023;28;20047;-71
2021/10/21 03:07:38;;;;;;;11.65;8.10;;;;;;;16.16;48.80;98634.25;5071756;28;20123;-71
2021/10/21 03:10:06;;;;;;;12.77;7.57;;;;;;;16.13;48.75;98638.09;5089727;28;20580;-70
2021/10/21 03:12:33;;;;;;;11.90;8.82;;;;;;;16.11;48.88;98640.13;5090452;28;20044;-71
2021/10/21 03:15:00;;;;;;;11.43;8.13;;;;;;;16.10;48.92;98635.00;5093957;28;20447;-72
2021/10/21 03:17:27;;;;;;;13.93;7.03;;;;;;;16.10;48.80;98621.66;5090038;28;20484;-72
2021/10/21 03:19:53;;;;;;;12.05;8.73;;;;;;;16.10;48.95;98622.53;5088811;28;20048;-72
2021/10/21 03:22:22;;;;;;;8.95;6.68;;;;;;;16.11;49.03;98618.81;5089830;28;20140;-72
2021/10/21 03:24:48;;;;;;;13.82;8.52;;;;;;;16.13;48.93;98600.81;5090164;28;20066;-73
2021/10/21 03:27:16;;;;;;;14.70;8.27;;;;;;;16.22;48.83;98594.38;5089295;28;20083;-72
2021/10/21 03:29:43;;;;;;;11.93;8.23;;;;;;;16.30;48.71;98595.28;5083474;28;20084;-72
2021/10/21 03:32:10;;;;;;;12.73;7.93;;;;;;;16.36;48.52;98578.53;5068753;28;20056;-72
2021/10/21 03:34:37;;;;;;;11.18;6.78;;;;;;;16.41;48.54;98584.13;5068039;28;20056;-72
2021/10/21 03:37:04;;;;;;;12.50;8.50;;;;;;;16.42;48.52;98575.94;5069450;28;20071;-72
2021/10/21 03:39:32;;;;;;;15.30;8.05;;;;;;;16.41;48.66;98576.13;5068575;28;20594;-72
2021/10/21 03:41:59;;;;;;;11.85;8.35;;;;;;;16.42;48.59;98570.63;5066455;28;20056;-72
2021/10/21 03:44:26;;;;;;;12.55;7.82;;;;;;;16.45;48.59;98574.72;5068742;28;20059;-72
2021/10/21 03:46:53;;;;;;;11.10;8.05;;;;;;;16.49;48.63;98575.97;5068795;28;20045;-71
2021/10/21 03:49:20;;;;;;;14.77;9.05;;;;;;;16.51;48.51;98567.81;5066905;28;20040;-72
2021/10/21 03:51:47;;;;;;;11.55;8.45;;;;;;;16.53;48.47;98563.09;5068710;28;20061;-70
2021/10/21 03:54:14;;;;;;;14.05;8.10;;;;;;;16.50;48.51;98564.31;5068460;28;20044;-70
2021/10/21 03:56:44;;;;;;;11.55;8.27;;;;;;;16.49;48.56;98559.19;5067832;28;20044;-71
2021/10/21 03:59:11;;;;;;;13.60;9.48;;;;;;;16.41;48.76;98557.47;5069122;28;20099;-71
2021/10/21 04:01:38;;;;;;;13.60;8.75;;;;;;;16.31;48.87;98546.28;5067361;28;20056;-74
2021/10/21 04:04:05;;;;;;;10.73;8.20;;;;;;;16.22;49.03;98541.13;5067336;28;20052;-71
2021/10/21 04:06:32;;;;;;;13.70;8.95;;;;;;;16.17;49.06;98543.50;5059663;28;20055;-72
2021/10/21 04:08:58;;;;;;;12.82;9.30;;;;;;;16.14;49.16;98530.56;5067854;28;20048;-70
2021/10/21 04:11:26;;;;;;;13.95;9.50;;;;;;;16.13;49.24;98536.91;5065991;28;20044;-71
2021/10/21 04:13:54;;;;;;;15.65;8.57;;;;;;;16.15;49.13;98528.72;5066094;28;20668;-71
2021/10/21 04:16:21;;;;;;;13.38;9.35;;;;;;;16.16;49.05;98499.25;5067851;28;20040;-72
2021/10/21 04:18:48;;;;;;;12.25;8.88;;;;;;;16.20;48.99;98486.34;5067564;28;20063;-72
2021/10/21 04:21:16;;;;;;;18.35;8.95;;;;;;;16.23;48.85;98502.78;5068238;28;20060;-71
2021/10/21 04:23:43;;;;;;;15.38;10.30;;;;;;;16.21;49.03;98523.47;5068548;28;20044;-72
2021/10/21 04:26:10;;;;;;;12.38;8.88;;;;;;;16.21;48.85;98506.66;5068472;28;20044;-73
2021/10/21 04:28:37;;;;;;;16.35;10.45;;;;;;;16.19;49.01;98501.53;5069108;28;20053;-71
2021/10/21 04:31:06;;;;;;;12.55;9.05;;;;;;;16.16;49.09;98504.56;5069645;28;20053;-73
2021/10/21 04:33:33;;;;;;;11.55;8.95;;;;;;;16.11;49.22;98493.66;5086656;28;20040;-72
2021/10/21 04:36:00;;;;;;;13.95;9.60;;;;;;;16.08;49.17;98490.53;5071129;28;20628;-72
2021/10/21 04:38:27;;;;;;;12.93;9.57;;;;;;;16.12;49.11;98487.31;5068523;28;20052;-72
2021/10/21 04:40:54;;;;;;;12.57;8.45;;;;;;;16.14;48.99;98468.50;5067604;28;20408;-73
2021/10/21 04:43:21;;;;;;;14.25;9.23;;;;;;;16.12;49.19;98465.19;5066792;28;20051;-73
2021/10/21 04:45:48;;;;;;;17.02;9.60;;;;;;;16.14;49.07;98463.97;5068672;28;20051;-72
2021/10/21 04:48:16;;;;;;;14.98;9.35;;;;;;;16.13;49.07;98464.16;5068223;28;20054;-71
2021/10/21 04:50:43;;;;;;;13.07;9.20;;;;;;;16.05;49.28;98473.13;5059523;28;20053;-72
2021/10/21 04:53:10;;;;;;;12.30;8.73;;;;;;;15.96;49.50;98458.28;5025060;28;20053;-72
2021/10/21 04:55:37;;;;;;;12.25;9.07;;;;;;;15.90;49.58;98454.53;5029216;28;20072;-72
2021/10/21 04:58:06;;;;;;;15.57;8.63;;;;;;;15.86;49.75;98443.44;5048410;28;20504;-73
2021/10/21 05:00:34;;;;;;;13.77;8.25;;;;;;;15.86;49.73;98447.94;5060633;28;20613;-76
2021/10/21 05:03:08;;;;;;;13.88;9.00;;;;;;;15.84;49.84;98460.59;5048677;28;20051;-70
2021/10/21 05:05:38;;;;;;;11.77;8.52;;;;;;;15.79;49.99;98437.25;5047040;28;20123;-73
2021/10/21 05:08:10;;;;;;;12.00;8.27;;;;;;;15.77;49.88;98433.09;5045452;28;20688;-75
2021/10/21 05:10:37;;;;;;;12.48;8.77;;;;;;;15.76;49.93;98429.63;5047159;28;20060;-72
2021/10/21 05:13:04;;;;;;;13.27;7.43;;;;;;;15.79;49.85;98431.91;5045356;28;20061;-70
2021/10/21 05:15:31;;;;;;;12.48;7.93;;;;;;;15.83;49.84;98419.88;5045227;28;20053;-70
2021/10/21 05:17:58;;;;;;;13.10;8.40;;;;;;;15.93;49.71;98424.03;4996087;28;20053;-72
2021/10/21 05:20:26;;;;;;;13.15;8.45;;;;;;;16.01;49.43;98421.25;5049229;28;20365;-71
2021/10/21 05:22:54;;;;;;;14.10;8.48;;;;;;;16.10;49.32;98425.44;5053386;28;20489;-71
2021/10/21 05:25:21;;;;;;;14.93;10.18;;;;;;;16.16;49.28;98405.19;5045279;28;20049;-71
2021/10/21 05:27:48;;;;;;;10.63;8.73;;;;;;;16.20;49.20;98422.44;5045798;28;20127;-71
2021/10/21 05:30:15;;;;;;;10.85;7.97;;;;;;;16.25;49.11;98414.69;5054946;28;20048;-73
2021/10/21 05:32:42;;;;;;;12.95;8.23;;;;;;;16.27;49.05;98414.50;5069290;28;20049;-71
2021/10/21 05:35:09;;;;;;;14.73;10.93;;;;;;;16.29;49.03;98415.94;5067056;28;20055;-71
2021/10/21 05:37:36;;;;;;;13.55;9.65;;;;;;;16.34;48.94;98420.72;5067398;28;20055;-73
2021/10/21 05:40:06;;;;;;;17.33;9.50;;;;;;;16.34;49.05;98402.06;5066541;28;20570;-73
2021/10/21 05:42:33;;;;;;;15.45;8.15;;;;;;;16.38;49.02;98404.13;5098765;28;20040;-75
2021/10/21 05:45:00;;;;;;;12.00;8.57;;;;;;;16.43;48.85;98404.38;5107213;28;20044;-72
2021/10/21 05:47:27;;;;;;;15.68;8.75;;;;;;;16.48;48.84;98392.31;5099924;28;20440;-74
2021/10/21 05:49:54;;;;;;;14.38;8.38;;;;;;;16.52;48.80;98398.91;5083389;28;20082;-73
2021/10/21 05:52:24;;;;;;;16.88;9.02;;;;;;;16.52;48.68;98394.38;5073007;28;20067;-74
2021/10/21 05:54:51;;;;;;;12.13;8.05;;;;;;;16.58;48.53;98390.97;5085067;28;20039;-74
2021/10/21 05:57:20;;;;;;;14.70;9.35;;;;;;;16.60;48.69;98399.59;5082939;28;20050;-72
2021/10/21 05:59:47;;;;;;;12.85;9.05;;;;;;;16.67;48.41;98394.28;5084334;28;20044;-74
2021/10/21 06:02:14;;;;;;;12.93;8.88;;;;;;;16.76;48.44;98394.94;5084075;28;20368;-72
2021/10/21 06:04:41;;;;;;;15.90;9.00;;;;;;;16.87;48.12;98391.78;5089288;28;20101;-74
2021/10/21 06:07:08;;;;;;;14.43;9.13;;;;;;;17.02;48.06;98396.97;5094887;28;20044;-73
2021/10/21 06:09:35;;;;;;;18.52;8.55;;;;;;;17.20;47.50;98383.09;5093406;28;20040;-73
2021/10/21 06:12:02;;;;;;;13.63;9.27;;;;;;;17.34;47.30;98373.25;5089422;28;20055;-74
2021/10/21 06:14:31;;;;;;;12.45;9.23;;;;;;;17.47;46.99;98375.16;5088156;28;20411;-72
2021/10/21 06:16:59;;;;;;;15.73;9.35;;;;;;;17.56;46.88;98388.09;5093364;28;20054;-72
2021/10/21 06:19:26;;;;;;;11.27;9.00;;;;;;;17.62;46.73;98393.66;5094629;28;20040;-74
2021/10/21 06:21:59;;;;;;;13.13;9.20;;;;;;;17.60;46.88;98398.38;5090933;28;20126;-73
2021/10/21 06:24:26;;;;;;;14.32;9.77;;;;;;;17.53;47.14;98403.69;5090865;28;20128;-74
2021/10/21 06:26:54;;;;;;;12.43;8.82;;;;;;;17.48;47.17;98411.47;5094014;28;20043;-73
2021/10/21 06:29:20;;;;;;;15.10;8.77;;;;;;;17.46;47.29;98408.19;5095835;28;20467;-74
2021/10/21 06:31:50;;;;;;;11.35;8.70;;;;;;;17.53;47.18;98420.53;5094340;28;20079;-73
2021/10/21 06:34:17;;;;;;;13.77;8.25;;;;;;;17.56;47.01;98422.00;5095479;28;20039;-72
2021/10/21 06:36:44;;;;;;;12.02;8.35;;;;;;;17.63;47.06;98435.34;5094671;28;20040;-73
2021/10/21 06:39:11;;;;;;;11.77;7.60;;;;;;;17.74;46.78;98434.78;5092023;28;20631;-72
2021/10/21 06:41:38;;;;;;;11.65;9.00;;;;;;;17.77;46.80;98435.19;5088932;28;20051;-70
2021/10/21 06:44:06;;;;;;;12.48;8.77;;;;;;;17.71;46.74;98425.28;5094313;28;20558;-73
2021/10/21 06:46:33;;;;;;;13.40;9.05;;;;;;;17.67;46.79;98436.59;5091628;28;20114;-75
2021/10/21 06:49:01;;;;;;;11.30;8.98;;;;;;;17.68;47.08;98431.06;5092263;28;20090;-72
2021/10/21 06:51:28;;;;;;;12.38;9.55;;;;;;;17.68;46.64;98435.56;5098027;28;20054;-75
2021/10/21 06:53:55;;;;;;;14.52;8.68;;;;;;;17.77;46.62;98435.19;5092627;28;20137;-74
2021/10/21 06:56:23;;;;;;;12.63;9.60;;;;;;;17.74;46.65;98438.25;5093198;28;20047;-74
2021/10/21 06:58:49;;;;;;;14.82;11.57;;;;;;;17.72;46.89;98436.81;5096081;28;20051;-75
2021/10/21 07:01:16;;;;;;;13.68;9.07;;;;;;;17.65;47.03;98426.13;5091935;28;20047;-73
2021/10/21 07:03:43;;;;;;;15.02;10.45;;;;;;;17.62;47.28;98434.53;5093933;28;20047;-74
2021/10/21 07:06:12;;;;;;;14.20;9.77;;;;;;;17.49;47.76;98423.81;5092358;28;20438;-73
2021/10/21 07:08:39;;;;;;;17.52;9.52;;;;;;;17.37;48.12;98423.56;5093387;28;20048;-74
2021/10/21 07:11:08;;;;;;;15.40;11.00;;;;;;;17.24;48.54;98413.66;5091887;28;20067;-73
2021/10/21 07:13:35;;;;;;;11.70;9.38;;;;;;;17.20;48.61;98410.56;5093002;28;20094;-74
2021/10/21 07:16:02;;;;;;;14.15;10.15;;;;;;;17.24;48.82;98419.00;5085362;28;20154;-73
2021/10/21 07:18:29;;;;;;;12.88;9.63;;;;;;;17.29;48.63;98411.22;5082758;28;20048;-72
2021/10/21 07:20:58;;;;;;;13.98;9.48;;;;;;;17.29;48.52;98397.88;5083261;28;20167;-73
2021/10/21 07:23:26;;;;;;;13.98;10.18;;;;;;;17.33;48.60;98400.97;5083706;28;20683;-72
2021/10/21 07:25:53;;;;;;;11.75;9.73;;;;;;;17.31;48.54;98385.16;5083973;28;20396;-73
2021/10/21 07:28:22;;;;;;;13.95;9.40;;;;;;;17.26;48.78;98378.78;5085063;28;20052;-75
2021/10/21 07:30:52;;;;;;;14.07;10.38;;;;;;;17.19;49.06;98403.56;5082771;28;20060;-72
2021/10/21 07:33:19;;;;;;;13.65;11.38;;;;;;;17.07;50.01;98393.69;5083174;28;20047;-73
2021/10/21 07:35:45;;;;;;;18.00;10.93;;;;;;;16.97;50.13;98381.53;5084112;28;20643;-71
2021/10/21 07:38:13;;;;;;;13.23;10.18;;;;;;;16.93;50.21;98385.63;5081502;28;20044;-72
2021/10/21 07:40:41;;;;;;;15.68;11.07;;;;;;;16.91;50.40;98369.00;5081882;28;20062;-72
2021/10/21 07:43:09;;;;;;;14.23;9.90;;;;;;;16.92;50.23;98357.31;5081915;28;20040;-72
2021/10/21 07:45:36;;;;;;;15.13;11.63;;;;;;;16.95;50.18;98377.44;5084833;28;20047;-72
2021/10/21 07:48:03;;;;;;;17.85;11.30;;;;;;;16.95;50.12;98380.91;5082850;28;20072;-71
2021/10/21 07:50:30;;;;;;;15.20;9.85;;;;;;;16.98;50.05;98377.88;5086219;28;20131;-71
2021/10/21 07:52:57;;;;;;;15.18;10.30;;;;;;;16.99;50.14;98366.16;5088585;28;20059;-73
2021/10/21 07:55:24;;;;;;;16.38;11.50;;;;;;;17.02;50.11;98372.97;5089921;28;20044;-76
2021/10/21 07:57:52;;;;;;;16.98;11.10;;;;;;;17.05;50.19;98372.56;5088838;28;20063;-75
2021/10/21 08:00:19;;;;;;;17.98;11.55;;;;;;;17.05;50.06;98366.38;5088624;28;20744;-75
2021/10/21 08:02:46;;;;;;;17.05;11.10;;;;;;;17.05;49.96;98371.72;5071073;28;20048;-75
2021/10/21 08:05:14;;;;;;;16.83;11.65;;;;;;;17.04;50.14;98373.56;5088097;28;20420;-74
2021/10/21 08:07:44;;;;;;;18.73;12.32;;;;;;;17.04;50.07;98386.09;5088218;28;20611;-74
2021/10/21 08:10:11;;;;;;;18.23;12.35;;;;;;;17.01;50.14;98376.63;5087455;28;20068;-75
2021/10/21 08:12:39;;;;;;;18.77;12.82;;;;;;;16.97;50.37;98378.88;5084898;28;20040;-74
2021/10/21 08:15:10;;;;;;;15.00;10.68;;;;;;;16.97;50.77;98370.88;5096453;28;20688;-73
2021/10/21 08:17:37;;;;;;;14.13;10.73;;;;;;;16.96;50.47;98381.72;5098934;28;20047;-72
2021/10/21 08:20:05;;;;;;;19.60;11.32;;;;;;;16.95;50.86;98372.09;5089725;28;20122;-72
2021/10/21 08:22:33;;;;;;;16.63;11.98;;;;;;;16.97;50.80;98370.88;5095421;28;20097;-74
2021/10/21 08:25:00;;;;;;;15.18;10.27;;;;;;;17.00;50.79;98365.16;5100718;28;20044;-74
2021/10/21 08:27:26;;;;;;;16.92;12.07;;;;;;;16.96;51.02;98369.25;5099129;28;20052;-72
2021/10/21 08:29:53;;;;;;;17.73;12.32;;;;;;;16.87;51.15;98375.78;5099488;28;20051;-72
2021/10/21 08:32:22;;;;;;;13.50;10.85;;;;;;;16.83;51.43;98371.84;5096367;28;20699;-70
2021/10/21 08:34:50;;;;;;;15.75;11.23;;;;;;;16.79;51.75;98367.91;5096790;28;20487;-73
2021/10/21 08:37:17;;;;;;;18.40;11.02;;;;;;;16.75;52.04;98382.66;5095771;28;20044;-70
2021/10/21 08:39:44;;;;;;;15.75;11.07;;;;;;;16.76;52.07;98357.63;5095191;28;20040;-70
2021/10/21 08:42:11;;;;;;;13.85;10.07;;;;;;;16.78;52.31;98376.91;5093569;28;20040;-72
2021/10/21 08:44:39;;;;;;;15.90;11.57;;;;;;;16.77;52.35;98367.28;5092535;28;20080;-72
2021/10/21 08:47:09;;;;;;;20.05;11.65;;;;;;;16.75;52.70;98356.00;5095824;28;20099;-73
2021/10/21 08:49:40;;;;;;;16.58;11.50;;;;;;;16.78;52.66;98358.22;5091416;28;20170;-72
2021/10/21 08:52:08;;;;;;;16.77;13.07;;;;;;;16.77;52.75;98352.09;5095676;28;20140;-72
2021/10/21 08:54:35;;;;;;;15.50;11.63;;;;;;;16.76;52.76;98341.63;5094099;28;20075;-73
2021/10/21 08:57:01;;;;;;;16.30;12.75;;;;;;;16.73;52.97;98326.84;5093267;28;20442;-72
2021/10/21 08:59:28;;;;;;;14.95;12.60;;;;;;;16.72;53.09;98300.41;5094828;28;20123;-71
2021/10/21 09:02:06;;;;;;;15.43;12.88;;;;;;;16.71;52.91;98304.06;5094631;28;20119;-72
2021/10/21 09:04:52;;;;;;;23.67;12.35;;;;;;;16.71;52.90;98283.59;5091772;28;20052;-71
2021/10/21 09:10:11;;;;;;;18.67;13.57;;;;;;;16.91;52.64;98259.69;5089683;28;20415;-72
2021/10/21 09:12:43;;;;;;;19.33;13.00;;;;;;;17.05;52.24;98265.03;5093659;28;20100;-71
2021/10/21 09:15:15;;;;;;;17.25;11.95;;;;;;;17.14;52.08;98267.34;5106235;28;20091;-71
2021/10/21 09:17:43;;;;;;;18.58;12.65;;;;;;;17.29;51.86;98264.47;5096720;28;20073;-72
2021/10/21 09:20:37;;;;;;;18.33;12.88;;;;;;;17.39;51.67;98264.91;5093547;28;20040;-73
2021/10/21 09:23:07;;;;;;;19.02;12.70;;;;;;;17.47;51.45;98249.72;5088211;28;20040;-72
2021/10/21 09:25:35;;;;;;;19.40;13.82;;;;;;;17.55;51.27;98255.66;5093331;28;20044;-73
2021/10/21 09:28:15;;;;;;;16.67;13.60;;;;;;;17.70;51.17;98241.28;5094909;28;20130;-73
2021/10/21 09:30:50;;;;;;;17.45;13.10;;;;;;;17.81;51.03;98247.84;5092204;28;20146;-71
2021/10/21 09:33:17;;;;;;;18.88;14.02;;;;;;;17.83;50.85;98241.28;5097690;28;20048;-73
2021/10/21 09:35:56;;;;;;;17.52;13.95;;;;;;;17.85;50.77;98228.56;5100103;28;20127;-73
2021/10/21 09:38:28;;;;;;;15.95;13.07;;;;;;;17.88;50.81;98216.63;5094641;28;20044;-72
2021/10/21 09:40:57;;;;;;;18.55;14.13;;;;;;;17.89;50.71;98231.66;5077433;28;20040;-72
2021/10/21 09:43:33;;;;;;;18.33;12.13;;;;;;;17.95;50.78;98220.13;5083448;28;20047;-71
2021/10/21 09:46:00;;;;;;;19.00;12.70;;;;;;;18.03;50.61;98222.56;5093049;28;20050;-72
2021/10/21 09:48:27;;;;;;;16.63;13.05;;;;;;;18.06;50.47;98198.13;5089943;28;20414;-71
2021/10/21 09:50:55;;;;;;;17.85;13.45;;;;;;;18.12;50.55;98185.78;5097300;28;20043;-71
2021/10/21 09:53:23;;;;;;;17.65;13.13;;;;;;;18.24;50.36;98188.59;5089992;28;20047;-72
2021/10/21 09:55:53;;;;;;;17.08;12.80;;;;;;;18.41;49.87;98183.59;5091927;28;20048;-71
2021/10/21 09:58:26;;;;;;;19.17;13.80;;;;;;;18.52;49.83;98189.09;5092338;28;20103;-72
2021/10/21 10:01:06;;;;;;;15.90;11.70;;;;;;;18.62;49.79;98185.13;5092954;28;20504;-72
2021/10/21 10:03:34;;;;;;;18.63;14.38;;;;;;;18.71;49.31;98173.19;5097245;28;20036;-72
2021/10/21 10:06:02;;;;;;;17.13;13.13;;;;;;;18.85;49.13;98177.44;5094759;28;20047;-72
2021/10/21 10:08:30;;;;;;;16.02;11.68;;;;;;;18.99;48.72;98163.97;5092203;28;20292;-73
2021/10/21 10:11:01;;;;;;;20.20;13.68;;;;;;;19.03;48.44;98157.13;5073269;28;20040;-73
2021/10/21 10:13:28;;;;;;;17.70;13.48;;;;;;;19.02;48.82;98164.34;5080955;28;20044;-73
2021/10/21 10:15:56;;;;;;;17.02;12.88;;;;;;;19.04;48.45;98172.16;5083156;28;20439;-72
2021/10/21 10:18:26;;;;;;;19.75;13.70;;;;;;;18.93;48.53;98154.16;5085136;28;20572;-71
2021/10/21 10:21:03;;;;;;;16.52;12.45;;;;;;;18.93;48.76;98133.56;5084370;28;20131;-70
2021/10/21 10:23:32;;;;;;;17.95;13.63;;;;;;;18.91;48.74;98149.81;5084020;28;20048;-71
2021/10/21 10:25:59;;;;;;;18.73;13.07;;;;;;;18.96;48.89;98110.88;5089244;28;20050;-71
2021/10/21 10:28:46;;;;;;;14.10;11.15;;;;;;;18.94;48.54;98104.94;5083665;28;20441;-73
2021/10/21 10:31:40;;;;;;;20.65;15.60;;;;;;;18.95;48.64;98087.88;5083893;28;20056;-73
2021/10/21 10:34:07;;;;;;;15.35;11.65;;;;;;;18.90;48.73;98085.84;5082851;28;20052;-72
2021/10/21 10:36:35;;;;;;;16.33;12.20;;;;;;;18.84;48.74;98086.72;5083613;28;20076;-72
2021/10/21 10:39:06;;;;;;;16.73;12.63;;;;;;;18.79;49.05;98071.28;5084114;28;20078;-73
2021/10/21 10:41:48;;;;;;;16.85;11.32;;;;;;;18.72;49.02;98073.19;5081409;28;20060;-71
2021/10/21 10:44:48;;;;;;;14.77;11.63;;;;;;;18.63;49.15;98101.22;5084579;28;20044;-72
2021/10/21 10:47:15;;;;;;;17.80;11.38;;;;;;;18.55;49.25;98094.28;5082579;28;20044;-75
2021/10/21 10:49:43;;;;;;;15.73;11.40;;;;;;;18.52;49.40;98094.72;5083355;28;20407;-73
2021/10/21 10:52:12;;;;;;;14.27;10.38;;;;;;;18.50;49.26;98097.59;5083952;28;20693;-72
2021/10/21 10:55:03;;;;;;;16.90;11.18;;;;;;;18.57;49.55;98091.41;5084669;28;20040;-72
2021/10/21 10:57:53;;;;;;;13.88;10.68;;;;;;;18.59;49.44;98062.59;5084603;28;20050;-73
2021/10/21 11:00:48;;;;;;;13.25;11.85;;;;;;;18.64;49.45;98082.31;5087089;28;20052;-73
2021/10/21 11:03:30;;;;;;;15.15;11.25;;;;;;;18.67;49.18;98081.03;5084556;28;20044;-72
2021/10/21 11:05:58;;;;;;;19.25;11.05;;;;;;;18.69;49.14;98078.97;5088760;28;20036;-74
2021/10/21 11:08:53;;;;;;;15.88;12.90;;;;;;;18.76;49.49;98089.63;5105033;28;20048;-73
2021/10/21 11:11:41;;;;;;;17.13;12.05;;;;;;;18.77;49.19;98073.34;5040198;28;20148;-74
2021/10/21 11:14:09;;;;;;;16.08;11.18;;;;;;;18.75;49.30;98067.41;5039855;28;20605;-71
2021/10/21 11:16:41;;;;;;;14.80;10.30;;;;;;;18.76;49.12;98074.38;5041960;28;20138;-71
2021/10/21 11:19:09;;;;;;;18.35;11.10;;;;;;;18.82;48.90;98065.53;5026105;28;20687;-72
2021/10/21 11:21:54;;;;;;;15.55;9.50;;;;;;;18.91;49.12;98045.50;5020570;28;20636;-74
2021/10/21 11:24:57;;;;;;;13.27;10.10;;;;;;;18.98;49.00;98045.44;5038648;28;20045;-74
2021/10/21 11:27:29;;;;;;;14.82;8.98;;;;;;;19.02;48.68;98052.00;5044095;28;20040;-72
2021/10/21 11:30:06;;;;;;;14.48;9.10;;;;;;;18.99;49.09;98049.75;5045440;28;20057;-75
2021/10/21 11:32:35;;;;;;;18.08;10.45;;;;;;;19.02;48.73;98049.31;5045397;28;20052;-73